createdAt,value
2022-08-12T00:14:30.306Z,38
2022-08-12T00:29:48.118Z,39.5
2022-08-12T00:45:03.242Z,40
2022-08-12T01:00:19.287Z,40
2022-08-12T01:15:35.176Z,40
2022-08-12T01:30:52.104Z,43
2022-08-12T01:46:09.141Z,42.5
2022-08-12T02:01:26.106Z,43.5
2022-08-12T02:16:42.014Z,46
2022-08-12T02:31:58.016Z,46.5
2022-08-12T02:47:59.130Z,49
2022-08-12T03:02:31.964Z,50
2022-08-12T03:18:26.137Z,51.5
2022-08-12T03:33:05.890Z,52.5
2022-08-12T03:48:21.821Z,52.5
2022-08-12T04:03:38.791Z,52
2022-08-12T04:18:54.757Z,53.5
2022-08-12T04:34:10.729Z,54.5
2022-08-12T04:49:26.704Z,54.5
2022-08-12T05:04:43.662Z,55.5
2022-08-12T05:20:00.641Z,53.5
2022-08-12T05:35:17.606Z,51.5
2022-08-12T05:50:33.577Z,49
2022-08-12T06:05:54.546Z,50
2022-08-12T06:21:06.502Z,48.5
2022-08-12T06:36:22.487Z,47.5
2022-08-12T06:51:38.473Z,46.5
2022-08-12T07:06:56.404Z,45
2022-08-12T07:22:13.413Z,42.5
2022-08-12T07:37:30.338Z,37.5
2022-08-12T07:52:46.341Z,38
2022-08-12T08:08:03.305Z,36
2022-08-12T08:23:19.275Z,33.5
2022-08-12T08:38:35.569Z,35
2022-08-12T08:53:53.049Z,35
2022-08-12T09:24:27.782Z,34
2022-08-12T09:40:05.491Z,32
2022-08-12T09:55:02.274Z,31.5
2022-08-12T10:10:23.907Z,29
2022-08-12T10:26:35.118Z,28.5
2022-08-12T10:40:48.010Z,26.5
2022-08-12T10:56:04.954Z,25
2022-08-12T11:12:07.828Z,25
2022-08-12T11:26:38.854Z,24.5
2022-08-12T11:41:55.823Z,23
2022-08-12T11:58:08.163Z,22
2022-08-12T12:12:28.784Z,20.5
2022-08-12T12:28:04.871Z,19
2022-08-12T12:43:05.002Z,18.5
2022-08-12T12:58:16.672Z,17
2022-08-12T13:14:09.250Z,16.5
2022-08-12T13:28:53.234Z,15.5
2022-08-12T13:44:10.407Z,14.5
2022-08-12T13:59:26.603Z,13.5
2022-08-12T14:14:41.584Z,15
2022-08-12T14:30:06.136Z,16
2022-08-12T14:45:13.527Z,16.5
2022-08-12T15:00:30.455Z,15.5
2022-08-12T15:15:48.461Z,15
2022-08-12T15:31:09.634Z,16.5
2022-08-12T15:46:25.783Z,17.5
2022-08-12T16:01:38.431Z,17.5
2022-08-12T16:16:55.312Z,17
2022-08-12T16:32:11.322Z,16.5
2022-08-12T16:47:27.468Z,15.5
2022-08-12T17:02:44.256Z,15
2022-08-12T17:18:39.516Z,13.5
2022-08-12T17:33:24.847Z,14
2022-08-12T17:48:38.542Z,14.5
2022-08-12T18:04:05.354Z,14.5
2022-08-12T18:19:08.079Z,15.5
2022-08-12T18:34:24.048Z,16.5
2022-08-12T18:49:40.050Z,17
2022-08-12T19:04:56.988Z,17.5
2022-08-12T19:20:14.958Z,18.5
2022-08-12T19:36:06.719Z,20
2022-08-12T19:50:50.382Z,20.5
2022-08-12T20:06:15.978Z,22
2022-08-12T20:21:24.369Z,22.5
2022-08-12T20:36:40.622Z,25
2022-08-12T20:51:55.543Z,25
2022-08-12T21:07:11.308Z,25
2022-08-12T21:22:25.749Z,26
2022-08-12T21:37:42.670Z,26
2022-08-12T21:52:59.689Z,29.5
2022-08-12T22:08:16.647Z,31
2022-08-12T22:24:04.242Z,31
2022-08-12T22:38:48.581Z,32
2022-08-12T22:54:04.554Z,32.5
2022-08-12T23:09:21.530Z,34.5
2022-08-12T23:24:38.704Z,35
2022-08-12T23:40:15.650Z,36.5
2022-08-12T23:55:24.570Z,37.5
